Time;durP1;ratioP1;P1;durP2;ratioP2;P2;SDS_P1;SDS_P2;PMS_P1;PMS_P2;Temp;Humidity;BMP_temperature;BMP_pressure;BME280_temperature;BME280_humidity;BME280_pressure;Samples;Min_cycle;Max_cycle;Signal;HPM_P1;HPM_P2
2021/12/11 00:01:19;;;;;;;34.47;21.08;;;;;;;-144.19;88.93;77614.75;4995350;28;20068;-87
2021/12/11 00:03:55;;;;;;;30.10;20.40;;;;;;;-144.19;88.45;77624.59;4994885;28;20060;-86
2021/12/11 00:06:27;;;;;;;34.40;20.40;;;;;;;-144.19;87.37;77642.31;4997529;28;20058;-85
2021/12/11 00:08:59;;;;;;;31.27;20.40;;;;;;;-144.19;88.30;77626.56;4997831;28;20054;-86
2021/12/11 00:11:38;;;;;;;40.35;23.77;;;;;;;-144.19;87.82;77620.66;4998310;28;20519;-86
2021/12/11 00:14:08;;;;;;;32.28;21.33;;;;;;;-144.19;87.62;77618.69;4997945;28;20065;-86
2021/12/11 00:16:36;;;;;;;40.38;23.45;;;;;;;-144.19;87.44;77614.75;4997594;28;20058;-86
2021/12/11 00:19:25;;;;;;;31.05;20.98;;;;;;;-144.19;86.70;77626.56;4997586;28;20427;-87
2021/12/11 00:21:52;;;;;;;;;;;;;;;-144.19;87.14;77628.53;4998990;28;20072;-87
2021/12/11 00:24:26;;;;;;;36.53;25.27;;;;;;;-144.19;87.86;77630.50;5015643;28;19921;-87
2021/12/11 00:27:03;;;;;;;36.47;24.23;;;;;;;-144.19;88.16;77618.69;4997880;28;20508;-86
2021/12/11 00:29:31;;;;;;;35.67;23.42;;;;;;;-144.19;88.40;77622.63;5015060;28;20420;-88
2021/12/11 00:32:07;;;;;;;37.97;23.80;;;;;;;-144.19;87.71;77638.38;4998079;28;20047;-88
2021/12/11 00:34:37;;;;;;;32.13;22.77;;;;;;;-144.19;87.20;77656.09;5006828;28;20062;-86
2021/12/11 00:37:08;;;;;;;33.95;23.80;;;;;;;-144.19;87.19;77665.94;5001643;28;20046;-86
2021/12/11 00:39:45;;;;;;;36.72;23.10;;;;;;;-144.19;87.91;77660.03;5016313;28;20061;-85
2021/12/11 00:42:12;;;;;;;32.33;23.27;;;;;;;-144.19;87.99;77658.06;4998982;28;20049;-85
2021/12/11 00:44:46;;;;;;;34.28;22.48;;;;;;;-144.19;88.33;77644.28;4998579;28;20052;-86
2021/12/11 00:47:15;;;;;;;32.40;22.63;;;;;;;-144.19;88.25;77648.22;5015698;28;20140;-87
2021/12/11 00:49:50;;;;;;;38.78;24.23;;;;;;;-144.19;87.55;77656.09;5015308;28;20476;-88
2021/12/11 00:52:17;;;;;;;32.72;21.75;;;;;;;-144.19;87.89;77658.06;4998222;28;20053;-87
2021/12/11 00:54:45;;;;;;;34.60;23.80;;;;;;;-144.19;88.62;77648.22;4999079;28;20062;-86
2021/12/11 00:57:19;;;;;;;36.55;24.55;;;;;;;-144.19;88.72;77658.06;4997778;28;20054;-86
2021/12/11 00:59:46;;;;;;;33.55;23.00;;;;;;;-144.19;88.70;77648.22;4998013;28;20053;-86
2021/12/11 01:02:13;;;;;;;34.03;22.83;;;;;;;-144.19;88.21;77650.19;4997923;28;20054;-87
2021/12/11 01:04:41;;;;;;;;;;;;;;;-144.19;88.29;77656.09;4998410;28;20061;-85
2021/12/11 01:07:17;;;;;;;;;;;;;;;-144.19;87.80;77681.69;5015477;28;19922;-85
2021/12/11 01:09:58;;;;;;;33.10;20.48;;;;;;;-144.19;87.88;77679.72;5015611;28;20309;-88
2021/12/11 01:12:45;;;;;;;33.13;21.60;;;;;;;-144.19;87.67;77687.59;4998189;28;20053;-89
2021/12/11 01:15:21;;;;;;;32.63;21.25;;;;;;;-144.19;88.06;77689.56;5015588;28;20439;-86
2021/12/11 01:18:21;;;;;;;30.52;19.88;;;;;;;-144.19;87.78;77697.44;4997106;28;20059;-88
2021/12/11 01:21:04;;;;;;;33.78;20.85;;;;;;;-144.19;88.31;77697.44;4997432;28;20045;-86
2021/12/11 01:26:09;;;;;;;35.63;21.05;;;;;;;-144.19;89.23;77693.50;5015268;28;20282;-86
2021/12/11 01:28:37;;;;;;;32.88;19.13;;;;;;;-144.19;89.20;77707.28;5014398;28;20050;-86
2021/12/11 01:31:09;;;;;;;28.15;19.75;;;;;;;-144.19;88.86;77717.13;5015115;28;20152;-86
2021/12/11 01:33:36;;;;;;;28.25;19.73;;;;;;;-144.19;88.48;77732.88;4996569;28;20064;-87
2021/12/11 01:36:05;;;;;;;33.70;19.67;;;;;;;-144.19;88.84;77736.81;4996570;28;20057;-86
2021/12/11 01:38:33;;;;;;;28.67;18.20;;;;;;;-144.19;88.80;77748.63;5014093;28;20058;-88
2021/12/11 01:41:16;;;;;;;30.17;18.30;;;;;;;-144.19;88.35;77774.22;5013888;28;20057;-87
2021/12/11 01:43:45;;;;;;;30.65;18.20;;;;;;;-144.19;88.48;77780.13;5013130;28;20054;-88
2021/12/11 01:46:12;;;;;;;26.88;16.95;;;;;;;-144.19;89.31;77778.16;4995466;28;20053;-87
2021/12/11 01:48:42;;;;;;;34.60;19.10;;;;;;;-144.19;89.65;77780.13;4995429;28;20053;-86
2021/12/11 01:51:29;;;;;;;30.42;18.23;;;;;;;-144.19;89.83;77786.03;5013029;28;20046;-86
2021/12/11 01:54:04;;;;;;;25.20;16.77;;;;;;;-144.19;89.89;77789.97;4995355;28;20046;-88
2021/12/11 01:56:32;;;;;;;28.58;17.20;;;;;;;-144.19;89.94;77797.84;4995585;28;20050;-85
2021/12/11 01:59:07;;;;;;;26.00;16.23;;;;;;;-144.19;89.59;77813.59;5012443;28;20045;-85
2021/12/11 02:01:44;;;;;;;25.10;15.82;;;;;;;-144.19;90.19;77799.81;4995448;28;20046;-87
2021/12/11 02:04:12;;;;;;;29.15;16.65;;;;;;;-144.19;90.33;77789.97;4995233;28;20056;-88
2021/12/11 02:06:44;;;;;;;28.92;16.75;;;;;;;-144.19;90.17;77805.72;4994800;28;20050;-86
2021/12/11 02:09:13;;;;;;;29.27;16.50;;;;;;;-144.19;89.47;77831.31;5005504;28;20053;-87
2021/12/11 02:11:40;;;;;;;28.45;15.90;;;;;;;-144.19;89.23;77841.19;4998355;28;20053;-89
2021/12/11 02:14:07;;;;;;;24.17;15.10;;;;;;;-144.19;89.40;77839.19;4997230;28;20049;-86
2021/12/11 02:16:42;;;;;;;25.75;16.13;;;;;;;-144.19;89.72;77825.41;4996328;28;20050;-86
2021/12/11 02:19:28;;;;;;;27.75;15.65;;;;;;;-144.19;89.02;77854.97;5014014;28;20052;-88
2021/12/11 02:21:57;;;;;;;33.58;19.30;;;;;;;-144.19;89.07;77874.66;4996682;28;20061;-88
2021/12/11 02:24:30;;;;;;;25.70;14.75;;;;;;;-144.19;89.65;77872.69;5014181;28;20445;-87
2021/12/11 02:26:56;;;;;;;27.42;15.35;;;;;;;-144.19;90.04;77864.81;5013063;28;20054;-86
2021/12/11 02:29:49;;;;;;;24.80;14.75;;;;;;;-144.19;88.15;77910.09;4996253;28;20042;-88
2021/12/11 02:32:32;;;;;;;27.60;14.88;;;;;;;-144.19;88.73;77910.09;4994343;28;20052;-87
2021/12/11 02:35:10;;;;;;;28.77;15.82;;;;;;;-144.19;89.84;77882.53;4996823;28;20424;-84
2021/12/11 02:37:44;;;;;;;23.30;14.07;;;;;;;-144.19;88.99;77902.22;4995677;28;20046;-88
2021/12/11 02:40:33;;;;;;;20.80;13.25;;;;;;;-144.19;88.15;77925.84;5013348;28;20075;-86
2021/12/11 02:43:17;;;;;;;29.52;16.00;;;;;;;-144.19;88.78;77933.72;5013705;28;20052;-86
2021/12/11 02:46:04;;;;;;;23.60;14.60;;;;;;;-144.19;88.40;77941.59;4995914;28;20054;-88
2021/12/11 02:48:36;;;;;;;22.10;13.65;;;;;;;-144.19;88.58;77937.66;4995388;28;20049;-87
2021/12/11 02:51:16;;;;;;;24.70;14.95;;;;;;;-144.19;88.60;77949.47;4995467;28;20045;-88
2021/12/11 02:53:49;;;;;;;22.48;14.68;;;;;;;-144.19;89.65;77933.72;4995794;28;20056;-88
2021/12/11 02:56:30;;;;;;;24.75;14.20;;;;;;;-144.19;90.32;77941.59;4996081;28;20064;-86
2021/12/11 02:58:59;;;;;;;23.48;14.75;;;;;;;-144.19;89.40;77977.03;4995612;28;20041;-86
2021/12/11 03:01:40;;;;;;;20.63;13.18;;;;;;;-144.19;88.54;77992.78;4995565;28;20061;-87
2021/12/11 03:04:18;;;;;;;28.08;14.20;;;;;;;-144.19;88.62;77992.78;4995364;28;20081;-86
2021/12/11 03:06:48;;;;;;;24.98;15.23;;;;;;;-144.19;89.22;77980.97;5012871;28;20090;-86
2021/12/11 03:09:18;;;;;;;24.60;14.68;;;;;;;-144.19;89.14;77973.09;4994778;28;20042;-85
2021/12/11 03:11:45;;;;;;;25.17;15.43;;;;;;;-144.19;89.78;77980.97;4994789;28;20413;-86
2021/12/11 03:14:14;;;;;;;21.67;14.40;;;;;;;-144.19;90.36;77969.16;4994499;28;20136;-87
2021/12/11 03:16:43;;;;;;;26.85;14.88;;;;;;;-144.19;90.26;77975.06;4994696;28;20141;-85
2021/12/11 03:19:15;;;;;;;30.75;16.65;;;;;;;-144.19;89.79;77969.16;5011941;28;20046;-86
2021/12/11 03:21:43;;;;;;;33.75;15.75;;;;;;;-144.19;89.50;77967.19;4994935;28;20050;-87
2021/12/11 03:24:11;;;;;;;25.77;14.18;;;;;;;-144.19;88.96;77977.03;4994121;28;20172;-86
2021/12/11 03:26:39;;;;;;;32.65;17.65;;;;;;;-144.19;89.22;77973.09;4993974;28;20050;-87
2021/12/11 03:29:07;;;;;;;32.92;15.43;;;;;;;-144.19;89.28;77973.09;4993932;28;20061;-86
2021/12/11 03:31:38;;;;;;;32.05;16.65;;;;;;;-144.19;89.36;77959.31;5012198;28;20412;-86
2021/12/11 03:34:12;;;;;;;29.13;16.05;;;;;;;-144.19;89.51;77953.41;5011521;28;20076;-87
2021/12/11 03:36:39;;;;;;;28.02;15.80;;;;;;;-144.19;89.57;77961.28;4994013;28;20073;-86
2021/12/11 03:39:16;;;;;;;32.10;17.08;;;;;;;-144.19;90.33;77949.47;5011193;28;20496;-86
2021/12/11 03:41:46;;;;;;;32.97;15.73;;;;;;;-144.19;90.15;77965.22;5015631;28;20052;-87
2021/12/11 03:44:14;;;;;;;32.30;16.25;;;;;;;-144.19;90.51;77965.22;5014744;28;20052;-86
2021/12/11 03:46:42;;;;;;;32.05;15.55;;;;;;;-144.19;90.73;77957.34;5000365;28;20046;-86
2021/12/11 03:49:12;;;;;;;31.95;18.27;;;;;;;-144.19;90.81;77957.34;5017437;28;20052;-87
2021/12/11 03:51:41;;;;;;;32.15;15.98;;;;;;;-144.19;91.02;77969.16;4999808;28;20060;-84
2021/12/11 03:54:10;;;;;;;39.50;17.85;;;;;;;-144.19;91.18;77947.50;4999941;28;20046;-87
2021/12/11 03:56:38;;;;;;;57.45;19.67;;;;;;;-144.19;92.17;77965.22;5016809;28;20057;-86
2021/12/11 03:59:09;;;;;;;;;;;;;;;-144.19;93.24;77967.19;4999410;28;20057;-86
2021/12/11 04:01:43;;;;;;;39.92;17.58;;;;;;;-144.19;93.50;77971.13;4998931;28;19921;-86
2021/12/11 04:04:32;;;;;;;38.97;18.00;;;;;;;-144.19;94.33;77980.97;4999233;28;20050;-86
2021/12/11 04:07:01;;;;;;;38.28;18.50;;;;;;;-144.19;94.77;77967.19;4999024;28;20416;-86
2021/12/11 04:09:28;;;;;;;34.65;17.95;;;;;;;-144.19;95.08;77965.22;4998256;28;20046;-88
2021/12/11 04:11:56;;;;;;;103.97;21.40;;;;;;;-144.19;95.03;77973.09;4997937;28;20061;-87
2021/12/11 04:14:27;;;;;;;42.83;18.25;;;;;;;-144.19;95.20;77994.75;4998233;28;20041;-86
2021/12/11 04:16:55;;;;;;;75.60;18.40;;;;;;;-144.19;95.84;78000.66;4995186;28;20042;-87
2021/12/11 04:19:23;;;;;;;111.70;21.77;;;;;;;-144.19;96.38;77996.72;4998272;28;20046;-87
2021/12/11 04:21:50;;;;;;;57.53;19.13;;;;;;;-144.19;96.81;78020.34;4998892;28;20080;-87
2021/12/11 04:24:18;;;;;;;;;;;;;;;-144.19;97.47;78016.41;4999439;28;20161;-87
2021/12/11 04:26:45;;;;;;;;;;;;;;;-144.19;97.36;78030.22;4998546;28;19925;-86
2021/12/11 04:29:12;;;;;;;36.83;19.50;;;;;;;-144.19;98.16;78012.47;5015661;28;19926;-86
2021/12/11 04:31:43;;;;;;;62.45;19.92;;;;;;;-144.19;98.41;78010.50;4998430;28;20052;-86
2021/12/11 04:34:13;;;;;;;148.20;25.95;;;;;;;-144.19;98.46;78044.00;4997427;28;20050;-85
2021/12/11 04:36:50;;;;;;;118.95;23.27;;;;;;;-144.19;98.67;78059.75;4997629;28;20136;-88
2021/12/11 04:39:21;;;;;;;37.85;19.17;;;;;;;-144.19;98.81;78042.03;4997433;28;20046;-86
2021/12/11 04:42:00;;;;;;;160.90;27.73;;;;;;;-144.19;99.33;78036.13;5015384;28;20415;-87
2021/12/11 04:44:41;;;;;;;90.45;22.45;;;;;;;-144.19;99.22;78038.09;4997298;28;20054;-86
2021/12/11 04:47:15;;;;;;;137.60;29.95;;;;;;;-144.19;99.27;78036.13;5015024;28;20050;-86
2021/12/11 04:49:51;;;;;;;102.80;27.98;;;;;;;-144.19;99.54;78014.44;5014563;28;20042;-85
2021/12/11 04:52:33;;;;;;;44.88;22.30;;;;;;;-144.19;99.20;78022.31;5014701;28;20049;-86
2021/12/11 04:57:57;;;;;;;43.65;22.30;;;;;;;-144.19;99.44;78006.56;5014260;28;20423;-87
2021/12/11 05:00:46;;;;;;;38.65;19.73;;;;;;;-144.19;99.02;78016.41;4996266;28;20423;-87
2021/12/11 05:06:29;;;;;;;36.95;19.88;;;;;;;-144.19;97.15;78051.88;5014077;28;20054;-86
2021/12/11 05:11:16;;;;;;;37.90;18.80;;;;;;;-144.19;95.33;78047.94;5011389;28;20042;-87
2021/12/11 05:13:43;;;;;;;36.33;18.80;;;;;;;-144.19;94.11;78055.81;5014207;28;20054;-83
2021/12/11 05:16:12;;;;;;;37.15;18.33;;;;;;;-144.19;93.96;78083.38;5014134;28;20057;-85
2021/12/11 05:18:45;;;;;;;30.85;18.05;;;;;;;-144.19;94.55;78085.34;5026708;28;20081;-86
2021/12/11 05:21:17;;;;;;;30.13;16.63;;;;;;;-144.19;94.37;78124.72;4998028;28;20161;-86
2021/12/11 05:23:45;;;;;;;32.58;16.38;;;;;;;-144.19;94.53;78114.88;5015962;28;20340;-87
2021/12/11 05:26:12;;;;;;;22.90;14.50;;;;;;;-144.19;95.24;78101.09;4996877;28;20060;-85
2021/12/11 05:28:39;;;;;;;26.52;16.02;;;;;;;-144.19;95.10;78087.31;4998742;28;20060;-85
2021/12/11 05:31:06;;;;;;;;;;;;;;;-144.19;94.15;78118.81;5015868;28;20397;-86
2021/12/11 05:33:35;;;;;;;22.27;13.20;;;;;;;-144.19;94.35;78128.66;4998748;28;19937;-86
2021/12/11 05:36:06;;;;;;;25.30;15.18;;;;;;;-144.19;94.61;78130.63;5016364;28;20046;-87
2021/12/11 05:38:39;;;;;;;23.88;15.60;;;;;;;-144.19;94.29;78114.88;4997456;28;20072;-86
2021/12/11 05:41:09;;;;;;;23.33;15.38;;;;;;;-144.19;93.77;78097.16;5014419;28;20042;-84
2021/12/11 05:43:36;;;;;;;27.48;15.93;;;;;;;-144.19;92.82;78126.69;4997114;28;20056;-85
2021/12/11 05:46:05;;;;;;;;;;;;;;;-144.19;92.28;78154.25;5013778;28;20050;-87
2021/12/11 05:48:32;;;;;;;25.50;14.02;;;;;;;-144.19;92.66;78173.94;4996584;28;20012;-86
2021/12/11 05:51:01;;;;;;;25.05;16.23;;;;;;;-144.19;92.90;78189.72;4996102;28;20053;-86
2021/12/11 05:53:31;;;;;;;26.63;15.18;;;;;;;-144.19;93.66;78191.69;4996587;28;20057;-85
2021/12/11 05:56:02;;;;;;;31.77;15.90;;;;;;;-144.19;93.85;78170.00;4994327;28;20053;-85
2021/12/11 06:01:23;;;;;;;32.78;15.68;;;;;;;-144.19;92.53;78238.94;5012992;28;20048;-87
2021/12/11 06:03:55;;;;;;;41.78;15.93;;;;;;;-144.19;93.45;78223.19;5012267;28;20052;-84
2021/12/11 06:06:21;;;;;;;37.40;15.30;;;;;;;-144.19;93.78;78248.78;4995887;28;20056;-84
2021/12/11 06:08:47;;;;;;;28.85;15.05;;;;;;;-144.19;94.35;78225.16;5013590;28;20069;-85
2021/12/11 06:11:15;;;;;;;26.98;15.68;;;;;;;-144.19;94.59;78225.16;4995428;28;20042;-85
2021/12/11 06:13:42;;;;;;;26.40;15.13;;;;;;;-144.19;94.24;78252.72;4996172;28;20061;-86
2021/12/11 06:16:10;;;;;;;33.83;17.33;;;;;;;-144.19;94.48;78236.97;4994801;28;20053;-85
2021/12/11 06:18:37;;;;;;;30.52;15.88;;;;;;;-144.19;94.41;78231.06;4995565;28;20415;-85
2021/12/11 06:21:04;;;;;;;36.70;17.58;;;;;;;-144.19;93.94;78248.78;5013423;28;20046;-85
2021/12/11 06:23:30;;;;;;;25.98;15.25;;;;;;;-144.19;93.88;78252.72;4996710;28;20053;-85
2021/12/11 06:25:57;;;;;;;27.58;15.10;;;;;;;-144.19;93.79;78260.59;4995630;28;20064;-86
2021/12/11 06:28:26;;;;;;;30.02;15.93;;;;;;;-144.19;93.74;78262.56;4995864;28;20428;-85
2021/12/11 06:30:57;;;;;;;129.43;25.00;;;;;;;-144.19;93.86;78260.59;5012532;28;20064;-86
2021/12/11 06:33:26;;;;;;;73.68;21.35;;;;;;;-144.19;94.08;78256.66;5013263;28;20058;-85
2021/12/11 06:35:58;;;;;;;102.38;20.63;;;;;;;-144.19;94.74;78272.41;5012799;28;20050;-86
2021/12/11 06:38:27;;;;;;;97.13;21.08;;;;;;;-144.19;94.93;78276.34;4995730;28;20054;-85
2021/12/11 06:40:54;;;;;;;70.85;21.80;;;;;;;-144.19;95.59;78284.22;5012341;28;20079;-87
2021/12/11 06:43:22;;;;;;;103.68;24.33;;;;;;;-144.19;96.15;78252.72;4995462;28;20423;-87
2021/12/11 06:45:52;;;;;;;79.85;24.30;;;;;;;-144.19;96.21;78262.56;4997982;28;20111;-85
2021/12/11 06:48:19;;;;;;;52.58;19.42;;;;;;;-144.19;95.95;78272.41;4996055;28;20060;-87
2021/12/11 06:50:47;;;;;;;80.10;25.48;;;;;;;-144.19;96.38;78296.03;5016571;28;20117;-85
2021/12/11 06:53:41;;;;;;;79.25;24.58;;;;;;;-144.19;96.03;78280.28;5001169;28;20423;-85
2021/12/11 06:56:11;;;;;;;69.07;25.85;;;;;;;-144.19;96.53;78288.16;4996367;28;20137;-86
2021/12/11 06:58:38;;;;;;;42.33;20.45;;;;;;;-144.19;96.29;78288.16;4995353;28;20377;-87
2021/12/11 07:01:07;;;;;;;62.78;23.05;;;;;;;-144.19;96.54;78290.13;4995086;28;20496;-85
2021/12/11 07:03:35;;;;;;;47.67;21.95;;;;;;;-144.19;96.30;78292.09;4994751;28;20050;-87
2021/12/11 07:06:04;;;;;;;42.30;21.67;;;;;;;-144.19;96.63;78299.97;4995169;28;20073;-85
2021/12/11 07:08:32;;;;;;;31.95;19.05;;;;;;;-144.19;96.24;78331.50;4995356;28;20058;-86
2021/12/11 07:10:59;;;;;;;29.65;17.27;;;;;;;-144.19;95.42;78343.31;5043411;23;20045;-88
2021/12/11 07:13:27;;;;;;;28.73;16.17;;;;;;;-144.19;95.68;78347.25;5051830;28;20399;-88
2021/12/11 07:15:56;;;;;;;26.67;15.07;;;;;;;-144.19;95.55;78359.06;5036683;28;20458;-88
2021/12/11 07:18:24;;;;;;;23.60;15.23;;;;;;;-144.19;95.13;78382.69;5055370;28;20600;-88
2021/12/11 07:20:50;;;;;;;25.33;15.23;;;;;;;-144.19;94.21;78398.44;5037277;28;20052;-87
2021/12/11 07:23:17;;;;;;;23.05;13.63;;;;;;;-144.19;94.29;78398.44;5055358;28;20048;-87
2021/12/11 07:25:49;;;;;;;22.23;12.98;;;;;;;-144.19;94.25;78398.44;5037165;28;20056;-86
2021/12/11 07:28:15;;;;;;;22.05;14.43;;;;;;;-144.19;93.87;78374.81;5037253;28;20048;-88
2021/12/11 07:30:45;;;;;;;29.70;15.30;;;;;;;-144.19;93.19;78386.63;5039350;28;20041;-88
2021/12/11 07:33:14;;;;;;;29.88;15.38;;;;;;;-144.19;92.82;78382.69;5045608;28;20052;-88
2021/12/11 07:35:42;;;;;;;25.80;15.82;;;;;;;-144.19;93.09;78410.25;5052598;28;20052;-87
2021/12/11 07:38:09;;;;;;;28.48;15.60;;;;;;;-144.19;93.72;78426.03;5045284;28;20049;-89
2021/12/11 07:40:41;;;;;;;27.30;16.05;;;;;;;-144.19;94.02;78426.03;5044324;28;20052;-86
2021/12/11 07:43:10;;;;;;;24.75;15.23;;;;;;;-144.19;94.58;78428.00;5042055;28;20052;-86
2021/12/11 07:45:36;;;;;;;25.52;16.30;;;;;;;-144.19;94.43;78428.00;5053663;28;20047;-86
2021/12/11 07:48:04;;;;;;;25.90;15.32;;;;;;;-144.19;94.69;78433.91;5051485;28;20422;-87
2021/12/11 07:50:31;;;;;;;25.45;15.27;;;;;;;-144.19;94.99;78439.81;5044892;28;20045;-87
2021/12/11 07:52:58;;;;;;;24.55;15.73;;;;;;;-144.19;95.00;78437.84;5043483;28;20053;-87
2021/12/11 07:55:25;;;;;;;31.50;17.83;;;;;;;-144.19;95.22;78439.81;5044412;28;20049;-87
2021/12/11 07:57:53;;;;;;;29.38;17.58;;;;;;;-144.19;95.41;78424.06;5051366;28;20518;-87
2021/12/11 08:00:23;;;;;;;29.17;16.77;;;;;;;-144.19;94.74;78449.66;5044551;28;20051;-86
2021/12/11 08:02:49;;;;;;;25.15;15.82;;;;;;;-144.19;94.99;78449.66;5054706;28;20049;-86
2021/12/11 08:05:16;;;;;;;32.58;18.10;;;;;;;-144.19;95.22;78429.97;5044602;28;20147;-87
2021/12/11 08:07:44;;;;;;;28.17;16.48;;;;;;;-144.19;94.90;78461.47;5043810;28;20059;-87
2021/12/11 08:10:14;;;;;;;30.00;17.95;;;;;;;-144.19;94.52;78449.66;5044239;28;20514;-87
2021/12/11 08:12:42;;;;;;;32.03;17.58;;;;;;;-144.19;94.53;78433.91;5051905;28;20517;-87
2021/12/11 08:15:12;;;;;;;26.52;16.40;;;;;;;-144.19;94.49;78441.78;5045033;28;20104;-87
2021/12/11 08:17:39;;;;;;;30.23;16.83;;;;;;;-144.19;94.52;78437.84;5044695;28;20044;-87
2021/12/11 08:20:09;;;;;;;29.58;18.58;;;;;;;-144.19;94.69;78433.91;5045075;28;20045;-87
2021/12/11 08:22:35;;;;;;;30.80;18.40;;;;;;;-144.19;94.51;78447.69;5044363;28;20056;-87
2021/12/11 08:25:05;;;;;;;28.42;17.63;;;;;;;-144.19;94.51;78441.78;5041622;28;20045;-87
2021/12/11 08:27:32;;;;;;;31.05;18.83;;;;;;;-144.19;94.57;78445.72;5054117;28;20055;-88
2021/12/11 08:29:59;;;;;;;31.48;18.33;;;;;;;-144.19;94.90;78428.00;5053917;28;20059;-88
2021/12/11 08:32:26;;;;;;;27.38;17.02;;;;;;;-144.19;94.75;78429.97;5053731;28;20044;-88
2021/12/11 08:34:54;;;;;;;31.17;18.83;;;;;;;-144.19;94.50;78433.91;5053076;28;20053;-88
2021/12/11 08:37:23;;;;;;;37.40;18.40;;;;;;;-144.19;94.65;78418.13;5052175;28;20053;-88
2021/12/11 08:39:50;;;;;;;32.92;20.30;;;;;;;-144.19;94.61;78418.13;5051773;28;20053;-86
2021/12/11 08:42:21;;;;;;;39.75;23.10;;;;;;;-144.19;94.67;78414.19;5052834;28;20082;-85
2021/12/11 08:44:57;;;;;;;41.80;23.48;;;;;;;-144.19;95.41;78386.63;5054151;28;20059;-87
2021/12/11 08:47:25;;;;;;;43.55;25.20;;;;;;;-144.19;95.56;78359.06;5053865;28;20055;-88
2021/12/11 08:49:53;;;;;;;51.75;26.83;;;;;;;-144.19;95.85;78359.06;5050491;28;20053;-88
2021/12/11 08:52:24;;;;;;;53.17;28.23;;;;;;;-144.19;95.69;78337.41;5058719;28;20052;-88
2021/12/11 08:54:51;;;;;;;53.70;28.90;;;;;;;-144.19;95.66;78337.41;5055268;28;20049;-88
2021/12/11 08:57:19;;;;;;;;;;;;;;;-144.19;96.23;78327.56;5058463;28;20048;-88
2021/12/11 08:59:52;;;;;;;52.63;29.75;;;;;;;-144.19;96.26;78321.66;5059388;28;20370;-87
2021/12/11 09:02:37;;;;;;;58.90;31.67;;;;;;;-144.19;96.52;78307.88;5045056;28;20045;-87
2021/12/11 09:05:15;;;;;;;58.78;29.10;;;;;;;-144.19;96.68;78292.09;5050292;28;20045;-88
2021/12/11 09:07:50;;;;;;;49.10;28.55;;;;;;;-144.19;96.75;78288.16;5058791;28;20068;-86
2021/12/11 09:10:32;;;;;;;54.30;29.60;;;;;;;-144.19;97.00;78284.22;5042764;28;20049;-87
2021/12/11 09:13:10;;;;;;;55.70;30.25;;;;;;;-144.19;97.33;78280.28;5041939;28;20055;-87
2021/12/11 09:15:49;;;;;;;59.53;30.83;;;;;;;-144.19;97.21;78264.53;5057959;28;20064;-87
2021/12/11 09:18:25;;;;;;;59.50;31.00;;;;;;;-144.19;97.36;78254.69;5050912;28;20102;-88
2021/12/11 09:20:57;;;;;;;60.05;31.83;;;;;;;-144.19;97.15;78240.91;5047373;28;20055;-87
2021/12/11 09:23:45;;;;;;;57.75;30.50;;;;;;;-144.19;97.34;78233.03;5057322;28;20049;-87
2021/12/11 09:26:17;;;;;;;56.20;30.85;;;;;;;-144.19;97.34;78233.03;5055868;28;20047;-87
2021/12/11 09:28:53;;;;;;;60.00;32.35;;;;;;;-144.19;97.05;78244.84;5051331;28;20057;-87
2021/12/11 09:31:29;;;;;;;55.75;29.88;;;;;;;-144.19;97.25;78240.91;5039976;28;20705;-86
2021/12/11 09:34:22;;;;;;;55.20;30.40;;;;;;;-144.19;97.30;78231.06;5055881;28;20568;-87
2021/12/11 09:36:54;;;;;;;60.72;34.45;;;;;;;-144.19;97.29;78221.22;5033996;28;20045;-87
2021/12/11 09:39:24;;;;;;;57.03;31.27;;;;;;;-144.19;97.15;78193.66;5052654;28;20057;-87
2021/12/11 09:41:50;;;;;;;55.63;31.55;;;;;;;-144.19;96.44;78177.91;5039081;28;20047;-87
2021/12/11 09:44:22;;;;;;;50.73;30.23;;;;;;;-144.19;95.66;78185.78;5044531;28;20060;-87
2021/12/11 09:46:56;;;;;;;51.72;29.25;;;;;;;-144.19;95.54;78197.59;5048731;28;20057;-87
2021/12/11 09:49:27;;;;;;;48.20;28.25;;;;;;;-144.19;94.90;78189.72;5053124;28;20052;-86
2021/12/11 09:52:02;;;;;;;48.15;26.73;;;;;;;-144.19;94.39;78193.66;5046284;28;20040;-86
2021/12/11 09:54:31;;;;;;;43.90;25.63;;;;;;;-144.19;94.27;78193.66;5058171;28;20634;-87
2021/12/11 09:57:10;;;;;;;48.65;28.95;;;;;;;-144.19;93.86;78207.44;5061232;28;20045;-87
2021/12/11 09:59:38;;;;;;;45.47;26.88;;;;;;;-144.19;93.45;78199.56;5059011;28;20048;-87
2021/12/11 10:02:19;;;;;;;46.78;27.55;;;;;;;-144.19;92.81;78213.34;5060160;28;20648;-88
2021/12/11 10:04:59;;;;;;;43.80;27.48;;;;;;;-144.19;92.95;78229.09;5049847;28;20049;-86
2021/12/11 10:07:34;;;;;;;51.53;31.10;;;;;;;-144.19;93.13;78209.41;5049529;28;20053;-86
2021/12/11 10:10:22;;;;;;;48.72;28.88;;;;;;;-144.19;93.16;78219.25;5059484;28;20048;-86
2021/12/11 10:12:51;;;;;;;48.47;27.23;;;;;;;-144.19;93.61;78201.53;5048153;28;20051;-86
2021/12/11 10:15:29;;;;;;;48.70;28.33;;;;;;;-144.19;93.19;78213.34;5051067;28;20041;-86
2021/12/11 10:18:04;;;;;;;59.22;31.60;;;;;;;-144.19;93.96;78130.63;5055408;28;20049;-86
2021/12/11 10:20:36;;;;;;;51.83;28.75;;;;;;;-144.19;91.90;78032.19;5044729;28;20048;-86
2021/12/11 10:23:06;;;;;;;49.35;28.73;;;;;;;-144.19;88.22;78010.50;5048458;28;20067;-86
2021/12/11 10:25:36;;;;;;;59.10;32.78;;;;;;;-144.19;84.29;77931.75;5055435;28;20053;-86
2021/12/11 10:28:08;;;;;;;42.05;25.88;;;;;;;-144.19;81.89;77880.56;5038707;28;20102;-87
2021/12/11 10:30:39;;;;;;;51.28;27.83;;;;;;;-144.19;80.67;77858.91;5038765;28;20049;-85
2021/12/11 10:33:06;;;;;;;46.95;28.08;;;;;;;-144.19;78.59;77843.13;5055922;28;20400;-86
2021/12/11 10:35:37;;;;;;;46.90;27.33;;;;;;;-144.19;77.05;77874.66;5044648;28;20053;-86
2021/12/11 10:38:06;;;;;;;38.25;21.63;;;;;;;-144.19;78.06;77975.06;5054925;28;20059;-84
2021/12/11 10:40:39;;;;;;;40.92;24.45;;;;;;;-144.19;80.52;77882.53;5045701;28;20063;-85
2021/12/11 10:43:14;;;;;;;35.50;22.83;;;;;;;-144.19;78.74;77856.94;5046298;28;20042;-85
2021/12/11 10:45:41;;;;;;;35.63;22.23;;;;;;;-144.19;77.71;77900.25;5044188;28;20392;-85
2021/12/11 10:48:10;;;;;;;;;;;;;;;-144.19;79.04;77823.44;5044685;28;20049;-85
2021/12/11 10:50:41;;;;;;;36.63;22.90;;;;;;;-144.19;74.34;77715.16;5044148;28;20294;-84
2021/12/11 10:53:11;;;;;;;36.25;21.92;;;;;;;-144.19;77.38;77937.66;5047970;28;20506;-86
2021/12/11 10:55:39;;;;;;;38.58;22.60;;;;;;;-144.19;76.98;77925.84;5044860;28;20506;-86
2021/12/11 10:58:15;;;;;;;33.40;22.75;;;;;;;-144.19;81.79;78036.13;5046902;28;20045;-86
2021/12/11 11:00:53;;;;;;;36.35;22.45;;;;;;;-144.19;82.28;78026.28;5043598;28;20055;-85
2021/12/11 11:03:20;;;;;;;34.42;22.10;;;;;;;-144.19;80.75;78044.00;5045130;28;20094;-84
2021/12/11 11:05:48;;;;;;;41.90;23.13;;;;;;;-144.19;82.49;78012.47;5055961;28;20049;-84
2021/12/11 11:08:15;;;;;;;44.63;26.23;;;;;;;-144.19;82.96;77965.22;5045971;28;20437;-83
2021/12/11 11:10:46;;;;;;;;;;;;;;;-144.19;80.68;77975.06;5055939;28;20064;-85
2021/12/11 11:13:15;;;;;;;40.05;24.88;;;;;;;-144.19;76.63;77910.09;5045316;28;19921;-86
2021/12/11 11:15:43;;;;;;;41.50;25.65;;;;;;;-144.19;78.62;77894.34;5051058;28;20044;-86
2021/12/11 11:18:12;;;;;;;52.85;27.65;;;;;;;-144.19;75.18;77823.44;5053484;28;20045;-87
2021/12/11 11:20:48;;;;;;;43.67;27.23;;;;;;;-144.19;82.11;78073.53;5042287;28;20048;-81
2021/12/11 11:23:15;;;;;;;41.17;24.38;;;;;;;-144.19;84.38;78122.75;5043901;28;20048;-86
2021/12/11 11:25:45;;;;;;;;;;;;;;;-144.19;83.44;78042.03;5034915;28;20053;-85
2021/12/11 11:28:15;;;;;;;40.25;24.15;;;;;;;-144.19;85.18;78032.19;5037155;28;20382;-85
2021/12/11 11:30:52;;;;;;;39.33;23.75;;;;;;;-144.19;80.83;78047.94;5050764;28;20410;-84
2021/12/11 11:33:20;;;;;;;51.13;28.73;;;;;;;-144.19;81.87;78012.47;5033790;28;20136;-85
2021/12/11 11:35:48;;;;;;;50.10;31.08;;;;;;;-144.19;80.17;77943.56;5049702;28;20563;-84
2021/12/11 11:38:22;;;;;;;43.95;27.15;;;;;;;-144.19;81.00;78077.47;5050233;28;20040;-84